Архив погоды в Дно

Метеограмма Дно
Понедельник, 20 Августа
Время местн. Темп Ветер Видим Явления Облачность нижн/средн/верх Атм. давл. Влжн Точка росы ВНГО R Сост. почвы Tg s
Напр Скр Прв ур.ст ур.м изм
18:00 - +20.1° Ю 3 - - - - 751 757 -2 78% +16.2° - - - - -
15:00 - +18.9° Ю 1 - - - - 753 759 -0.8 87% +16.6° - - - - -
12:00 - +20° Ю,Ю-З 3 - - - - 754 760 -0.4 75% +15.5° - - - - -
09:00 +16.8° Ю,Ю-З 1 - 4 км слабый ливневый дождь облачно 754 760 -0.5 94% +15.8° 1 км 0 Влажная (без луж) - -
06:00 - +16.3° Ю 1 - - - - 755 761 -0.5 91% +14.8° - - - - -
03:00 - +17.2° З,Ю-З 2 - - - - 755 761 -0.1 87% +15.1° - - - - -
00:00 - +17.8° Ю-З 2 - - - - 756 761 -0.1 83% +14.8° - - - - -
Воскресенье, 19 Августа
Время местн. Темп Ветер Видим Явления Облачность нижн/средн/верх Атм. давл. Влжн Точка росы ВНГО R Сост. почвы Tg s
Напр Скр Прв ур.ст ур.м изм
21:00 +19.1° Ю,Ю-З 2 - 50 км - облачно 756 761 -0.2 72% +13.9° 1.5 км 0 - - -
18:00 - +20.6° З,Ю-З 2 - - - - 756 761 +0.2 61% +12.8° - - - - -
15:00 - +22.6° З,Ю-З 4 - - - - 756 761 -0.5 58% +13.9° - - - - -
12:00 - +20.7° З 3 - - - - 756 762 -0.2 80% +17.2° - - - - -
09:00 +19.2° З,Ю-З 2 - 20 км - облачно 756 762 -0.5 88% +17.2° 1 км 0 Влажная (без луж) +17° -
06:00 - +17.6° Ю 1 - - - - 757 763 -0.6 94% +16.6° - - - - -
03:00 - +18.1° Ю 1 - - - - 758 763 -0.7 91% +16.6° - - - - -
00:00 - +17.9° Ю 2 - - - - 758 764 -0.2 93% +16.8° - - - - -
Суббота, 18 Августа
Время местн. Темп Ветер Видим Явления Облачность нижн/средн/верх Атм. давл. Влжн Точка росы ВНГО R Сост. почвы Tg s
Напр Скр Прв ур.ст ур.м изм
21:00 +21.1° Ю 3 - 50 км - переменная облачность 758 764 -0.1 75% +16.4° 1 км 0 - - -
18:00 - +23.6° Ю 1 - - - - 758 764 -0.9 63% +16.1° - - - - -
15:00 - +25.9° Ю-В 3 - - - - 759 765 -0.8 52% +15.4° - - - - -
12:00 - +24° Ю 2 - - - - 760 766 -0.4 60% +15.7° - - - - -
09:00 +18.7° Ю 2 - 4 км дымка ясно 760 766 -0.3 78% +14.8° более 2.5 км 0 Влажная (без луж) - -
06:00 - +12.8° Ю-В 1 - - - - 761 767 -0.2 98% +12.5° - - - - -
03:00 - +13.5° Ю,Ю-В 1 - - - - 761 767 +0.2 99% +13.3° - - - - -
00:00 - +9.9° штиль 0 - - - - 761 767 +0.2 99% +9.8° - - - - -
Пятница, 17 Августа
Время местн. Темп Ветер Видим Явления Облачность нижн/средн/верх Атм. давл. Влжн Точка росы ВНГО R Сост. почвы Tg s
Напр Скр Прв ур.ст ур.м изм
21:00 +14.5° штиль 0 - 10 км - незначительная облачность 760 766 -0.7 95% +13.7° более 2.5 км 0 - - -
18:00 - +23.7° Ю 1 - - - - 761 767 -0.8 51% +13° - - - - -
15:00 - +23.2° Ю 2 - - - - 762 768 -0.5 51% +12.6° - - - - -